createdAt,value
2019-02-26T00:01:08.852Z,70.32
2019-02-26T00:03:38.129Z,70.29
2019-02-26T00:06:07.319Z,70.46
2019-02-26T00:08:36.593Z,69.80
2019-02-26T00:11:08.279Z,68.83
2019-02-26T00:13:36.785Z,69.48
2019-02-26T00:16:08.005Z,70.35
2019-02-26T00:18:37.013Z,70.23
2019-02-26T00:21:06.159Z,71.23
2019-02-26T00:23:35.361Z,71.21
2019-02-26T00:26:04.483Z,71.23
2019-02-26T00:28:34.248Z,71.41
2019-02-26T00:31:05.989Z,71.27
2019-02-26T00:33:35.559Z,70.94
2019-02-26T00:36:06.623Z,71.82
2019-02-26T00:38:37.524Z,71.65
2019-02-26T00:41:06.451Z,71.07
2019-02-26T00:43:36.949Z,70.68
2019-02-26T00:46:08.058Z,70.71
2019-02-26T00:48:38.878Z,69.55
2019-02-26T00:51:08.098Z,68.89
2019-02-26T00:53:37.252Z,70.00
2019-02-26T00:56:08.008Z,70.53
2019-02-26T00:58:39.198Z,71.21
2019-02-26T01:01:12.204Z,70.85
2019-02-26T01:03:40.705Z,71.12
2019-02-26T01:06:10.363Z,71.24
2019-02-26T01:08:40.254Z,71.72
2019-02-26T01:11:10.563Z,71.78
2019-02-26T01:13:39.744Z,71.62
2019-02-26T01:16:09.167Z,71.77
2019-02-26T01:18:38.366Z,71.56
2019-02-26T01:21:07.527Z,71.14
2019-02-26T01:23:36.790Z,71.62
2019-02-26T01:26:05.984Z,71.94
2019-02-26T01:28:35.173Z,71.81
2019-02-26T01:31:05.031Z,72.70
2019-02-26T01:33:35.285Z,72.29
2019-02-26T01:36:04.485Z,72.12
2019-02-26T01:38:37.427Z,72.31
2019-02-26T01:41:04.579Z,72.35
2019-02-26T01:43:33.713Z,71.70
2019-02-26T01:46:03.158Z,71.17
2019-02-26T01:48:34.347Z,71.98
2019-02-26T01:51:03.420Z,72.56
2019-02-26T01:53:32.613Z,72.86
2019-02-26T01:56:04.581Z,72.56
2019-02-26T01:58:33.648Z,72.12
2019-02-26T02:01:03.399Z,72.21
2019-02-26T02:03:32.696Z,72.30
2019-02-26T02:06:02.021Z,72.14
2019-02-26T02:08:31.327Z,72.05
2019-02-26T02:11:02.449Z,72.28
2019-02-26T02:13:33.115Z,72.65
2019-02-26T02:16:04.366Z,72.72
2019-02-26T02:18:33.186Z,72.94
2019-02-26T02:21:02.332Z,73.49
2019-02-26T02:23:31.592Z,73.90
2019-02-26T02:26:04.488Z,74.24
2019-02-26T02:28:35.470Z,74.54
2019-02-26T02:31:04.653Z,74.42
2019-02-26T02:33:35.441Z,75.08
2019-02-26T02:36:04.689Z,74.80
2019-02-26T02:38:36.488Z,74.75
2019-02-26T02:41:04.751Z,74.47
2019-02-26T02:43:33.912Z,74.62
2019-02-26T02:46:03.144Z,74.21
2019-02-26T02:48:32.317Z,74.66
2019-02-26T02:51:02.171Z,75.06
2019-02-26T02:53:32.520Z,74.54
2019-02-26T02:56:03.540Z,74.51
2019-02-26T02:58:32.618Z,74.35
2019-02-26T03:01:01.822Z,74.55
2019-02-26T03:03:31.120Z,74.32
2019-02-26T03:06:01.777Z,73.96
2019-02-26T03:08:31.172Z,74.26
2019-02-26T03:11:00.343Z,74.19
2019-02-26T03:13:29.474Z,74.58
2019-02-26T03:16:01.058Z,74.64
2019-02-26T03:18:29.581Z,75.14
2019-02-26T03:20:59.947Z,75.23
2019-02-26T03:23:31.399Z,75.51
2019-02-26T03:26:00.922Z,75.37
2019-02-26T03:28:34.823Z,75.51
2019-02-26T03:31:01.574Z,75.58
2019-02-26T03:33:30.769Z,75.15
2019-02-26T03:35:59.983Z,75.19
2019-02-26T03:38:29.133Z,75.45
2019-02-26T03:41:01.113Z,75.77
2019-02-26T03:43:31.439Z,76.16
2019-02-26T03:46:00.438Z,76.22
2019-02-26T03:48:29.627Z,75.94
2019-02-26T03:51:01.309Z,76.21
2019-02-26T03:53:31.339Z,76.35
2019-02-26T03:56:04.591Z,76.10
2019-02-26T03:58:33.927Z,75.76
2019-02-26T04:01:07.344Z,76.38
2019-02-26T04:03:35.271Z,75.89
2019-02-26T04:06:08.780Z,75.83
2019-02-26T04:08:36.171Z,75.88
2019-02-26T04:11:05.337Z,76.11
2019-02-26T04:13:34.491Z,76.33
2019-02-26T04:16:04.557Z,76.41
2019-02-26T04:18:34.793Z,76.19
2019-02-26T04:21:05.927Z,76.23
2019-02-26T04:23:36.072Z,76.38
2019-02-26T04:26:36.017Z,76.55
2019-02-26T04:29:20.548Z,76.14
2019-02-26T04:32:40.869Z,76.14
2019-02-26T04:35:47.703Z,75.47
2019-02-26T04:38:59.632Z,75.71
2019-02-26T04:41:38.446Z,76.32
2019-02-26T04:44:34.279Z,77.36
2019-02-26T04:47:26.921Z,76.85
2019-02-26T04:49:58.161Z,77.10
2019-02-26T04:52:29.579Z,77.01
2019-02-26T04:54:59.072Z,77.00
2019-02-26T04:57:28.268Z,77.21
2019-02-26T04:59:59.122Z,77.26
2019-02-26T05:02:28.601Z,77.29
2019-02-26T05:04:57.797Z,77.57
2019-02-26T05:07:28.336Z,77.85
2019-02-26T05:09:59.428Z,77.67
2019-02-26T05:12:30.971Z,77.60
2019-02-26T05:14:59.479Z,78.19
2019-02-26T05:17:30.806Z,78.05
2019-02-26T05:19:59.527Z,77.95
2019-02-26T05:22:31.036Z,77.69
2019-02-26T05:24:59.714Z,77.18
2019-02-26T05:27:30.385Z,77.03
2019-02-26T05:29:59.606Z,77.80
2019-02-26T05:32:30.941Z,77.60
2019-02-26T05:34:59.714Z,77.72
2019-02-26T05:37:32.606Z,78.06
2019-02-26T05:40:01.261Z,78.16
2019-02-26T05:42:30.457Z,78.82
2019-02-26T05:45:02.799Z,78.83
2019-02-26T05:47:30.630Z,79.32
2019-02-26T05:50:02.249Z,78.87
2019-02-26T05:52:33.219Z,79.20
2019-02-26T05:55:01.981Z,79.14
2019-02-26T05:57:32.475Z,79.36
2019-02-26T06:00:02.397Z,79.48
2019-02-26T06:02:31.692Z,79.42
2019-02-26T06:05:02.474Z,79.74
2019-02-26T06:07:35.542Z,79.35
2019-02-26T06:10:02.971Z,79.10
2019-02-26T06:12:32.648Z,78.98
2019-02-26T06:15:05.868Z,79.42
2019-02-26T06:17:37.907Z,79.31
2019-02-26T06:20:26.162Z,79.43
2019-02-26T06:22:55.162Z,79.60
2019-02-26T06:25:24.781Z,79.32
2019-02-26T06:27:53.999Z,79.58
2019-02-26T06:30:27.577Z,79.60
2019-02-26T06:32:59.715Z,79.58
2019-02-26T06:35:28.004Z,79.43
2019-02-26T06:37:57.320Z,79.79
2019-02-26T06:40:26.507Z,79.26
2019-02-26T06:42:55.715Z,79.21
2019-02-26T06:45:24.903Z,78.57
2019-02-26T06:47:56.084Z,78.57
2019-02-26T06:50:25.016Z,78.84
2019-02-26T06:52:54.172Z,78.56
2019-02-26T06:55:23.379Z,78.67
2019-02-26T06:57:55.002Z,78.88
2019-02-26T07:00:25.285Z,79.10
2019-02-26T07:02:54.462Z,78.82
2019-02-26T07:05:24.600Z,78.40
2019-02-26T07:07:55.059Z,78.41
2019-02-26T07:10:26.731Z,78.45
2019-02-26T07:12:55.938Z,78.07
2019-02-26T07:15:28.795Z,77.53
2019-02-26T07:18:00.061Z,77.15
2019-02-26T07:20:33.855Z,76.45
2019-02-26T07:22:58.014Z,76.41
2019-02-26T07:25:27.273Z,76.59
2019-02-26T07:27:58.767Z,76.96
2019-02-26T07:30:29.642Z,76.32
2019-02-26T07:32:58.813Z,75.91
2019-02-26T07:35:28.825Z,75.44
2019-02-26T07:37:59.518Z,75.31
2019-02-26T07:40:30.517Z,75.39
2019-02-26T07:43:04.932Z,74.33
2019-02-26T07:45:32.335Z,74.69
2019-02-26T07:48:05.615Z,74.76
2019-02-26T07:50:38.276Z,74.73
2019-02-26T07:53:05.897Z,75.15
2019-02-26T07:55:35.881Z,75.20
2019-02-26T07:58:06.846Z,75.09
2019-02-26T08:00:37.752Z,74.95
2019-02-26T08:03:07.898Z,74.55
2019-02-26T08:05:37.076Z,73.74
2019-02-26T08:08:06.253Z,73.23
2019-02-26T08:10:39.431Z,73.25
2019-02-26T08:13:08.009Z,72.97
2019-02-26T08:15:37.629Z,72.86
2019-02-26T08:18:08.164Z,71.89
2019-02-26T08:20:39.702Z,71.24
2019-02-26T08:23:08.225Z,70.36
2019-02-26T08:25:37.417Z,69.28
2019-02-26T08:28:08.435Z,68.54
2019-02-26T08:30:40.200Z,68.64
2019-02-26T08:33:08.817Z,68.66
2019-02-26T08:35:38.005Z,68.47
2019-02-26T08:38:07.198Z,68.05
2019-02-26T08:40:36.989Z,65.68
2019-02-26T08:43:06.193Z,65.28
2019-02-26T08:45:35.537Z,64.86
2019-02-26T08:48:04.693Z,63.89
2019-02-26T08:50:36.162Z,63.91
2019-02-26T08:53:05.268Z,63.48
2019-02-26T08:55:34.457Z,62.75
2019-02-26T08:58:03.696Z,63.37
2019-02-26T09:00:34.340Z,62.99
2019-02-26T09:03:03.620Z,61.29
2019-02-26T09:05:34.502Z,59.61
2019-02-26T09:08:05.650Z,57.96
2019-02-26T09:10:38.286Z,58.10
2019-02-26T09:13:09.328Z,57.37
2019-02-26T09:15:40.328Z,57.60
2019-02-26T09:18:09.021Z,58.09
2019-02-26T09:20:38.169Z,57.45
2019-02-26T09:23:07.388Z,56.45
2019-02-26T09:25:36.525Z,55.60
2019-02-26T09:28:05.734Z,55.04
2019-02-26T09:30:35.919Z,55.46
2019-02-26T09:33:08.328Z,55.54
2019-02-26T09:35:37.057Z,54.92
2019-02-26T09:38:06.275Z,54.36
2019-02-26T09:40:37.711Z,54.16
2019-02-26T09:43:06.882Z,53.53
2019-02-26T09:45:36.109Z,53.66
2019-02-26T09:48:05.443Z,53.04
2019-02-26T09:50:36.761Z,52.37
2019-02-26T09:53:05.940Z,52.80
2019-02-26T09:55:35.135Z,52.50
2019-02-26T09:58:04.382Z,52.67
2019-02-26T10:00:33.603Z,51.92
2019-02-26T10:03:03.474Z,51.15
2019-02-26T10:05:34.082Z,51.17
2019-02-26T10:08:05.266Z,50.44
2019-02-26T10:10:36.943Z,48.76
2019-02-26T10:13:05.408Z,46.05
2019-02-26T10:15:35.467Z,47.47
2019-02-26T10:18:07.250Z,46.53
2019-02-26T10:20:36.420Z,46.95
2019-02-26T10:23:06.376Z,47.96
2019-02-26T10:25:38.690Z,46.02
2019-02-26T10:28:09.662Z,45.25
2019-02-26T10:30:41.634Z,44.51
2019-02-26T10:33:10.289Z,42.62
2019-02-26T10:35:42.037Z,42.67
2019-02-26T10:38:11.514Z,40.34
2019-02-26T10:40:53.429Z,38.66
2019-02-26T10:43:11.974Z,39.08
2019-02-26T10:45:42.396Z,38.95
2019-02-26T10:48:13.771Z,38.17
2019-02-26T10:50:46.974Z,39.26
2019-02-26T10:53:16.351Z,39.33
2019-02-26T10:55:45.022Z,38.86
2019-02-26T10:59:18.772Z,38.77
2019-02-26T11:01:49.014Z,38.02
2019-02-26T11:05:27.766Z,38.25
2019-02-26T11:07:47.022Z,38.64
2019-02-26T11:10:20.974Z,37.73
2019-02-26T11:12:50.519Z,37.39
2019-02-26T11:15:22.019Z,37.38
2019-02-26T11:17:53.191Z,36.65
2019-02-26T11:20:24.225Z,35.85
2019-02-26T11:22:52.934Z,37.25
2019-02-26T11:25:24.194Z,36.43
2019-02-26T11:27:53.120Z,37.25
2019-02-26T11:30:28.540Z,36.78
2019-02-26T11:32:58.705Z,36.05
2019-02-26T11:35:27.632Z,37.45
2019-02-26T11:37:57.740Z,35.75
2019-02-26T11:40:30.507Z,36.40
2019-02-26T11:43:00.190Z,36.16
2019-02-26T11:45:29.634Z,36.24
2019-02-26T11:48:00.997Z,37.03
2019-02-26T11:50:29.787Z,35.55
2019-02-26T11:52:59.281Z,36.01
2019-02-26T11:55:31.388Z,36.64
2019-02-26T11:57:59.465Z,36.54
2019-02-26T12:00:42.069Z,35.58
2019-02-26T12:03:33.350Z,35.76
2019-02-26T12:05:56.718Z,33.85
2019-02-26T12:08:32.759Z,34.55
2019-02-26T12:11:03.973Z,35.38
2019-02-26T12:13:33.091Z,34.46
2019-02-26T12:16:02.280Z,34.58
2019-02-26T12:18:31.432Z,34.22
2019-02-26T12:21:02.703Z,33.25
2019-02-26T12:23:31.516Z,32.25
2019-02-26T12:26:02.082Z,31.85
2019-02-26T12:28:32.430Z,31.16
2019-02-26T12:31:04.289Z,31.30
2019-02-26T12:33:34.414Z,30.43
2019-02-26T12:36:05.265Z,31.53
2019-02-26T12:38:36.656Z,30.40
2019-02-26T12:41:08.601Z,28.60
2019-02-26T12:43:37.457Z,26.54
2019-02-26T12:46:08.483Z,25.57
2019-02-26T12:48:41.867Z,26.44
2019-02-26T12:51:08.991Z,25.47
2019-02-26T12:53:49.952Z,23.75
2019-02-26T12:56:20.571Z,21.37
2019-02-26T12:58:52.025Z,21.34
2019-02-26T13:01:19.826Z,21.51
2019-02-26T13:03:54.030Z,18.86
2019-02-26T13:06:22.839Z,18.84
2019-02-26T13:08:50.924Z,21.11
2019-02-26T13:11:23.341Z,22.35
2019-02-26T13:13:53.270Z,22.46
2019-02-26T13:16:22.608Z,21.92
2019-02-26T13:18:56.615Z,22.53
2019-02-26T13:21:23.068Z,24.27
2019-02-26T13:23:52.220Z,25.25
2019-02-26T13:26:22.551Z,25.74
2019-02-26T13:28:52.997Z,26.27
2019-02-26T13:31:22.981Z,24.27
2019-02-26T13:33:52.358Z,20.47
2019-02-26T13:36:21.866Z,21.68
2019-02-26T13:38:51.043Z,20.55
2019-02-26T13:41:29.273Z,20.08
2019-02-26T13:43:51.777Z,19.61
2019-02-26T13:46:21.123Z,18.89
2019-02-26T13:48:50.398Z,18.00
2019-02-26T13:51:19.722Z,18.65
2019-02-26T13:53:48.940Z,17.11
2019-02-26T13:56:18.184Z,18.42
2019-02-26T13:58:47.358Z,22.53
2019-02-26T14:01:16.664Z,21.79
2019-02-26T14:03:45.984Z,21.60
2019-02-26T14:06:15.254Z,20.75
2019-02-26T14:08:44.465Z,21.03
2019-02-26T14:11:13.764Z,21.33
2019-02-26T14:13:43.032Z,20.26
2019-02-26T14:16:12.249Z,16.22
2019-02-26T14:18:41.453Z,16.96
2019-02-26T14:21:10.649Z,17.50
2019-02-26T14:23:39.845Z,17.84
2019-02-26T14:26:09.165Z,19.16
2019-02-26T14:28:38.493Z,20.23
2019-02-26T14:31:07.654Z,21.07
2019-02-26T14:33:37.131Z,21.48
2019-02-26T14:36:06.290Z,21.97
2019-02-26T14:38:35.667Z,21.98
2019-02-26T14:41:05.240Z,22.15
2019-02-26T14:43:34.352Z,21.90
2019-02-26T14:46:03.596Z,21.55
2019-02-26T14:48:32.768Z,20.76
2019-02-26T14:51:01.932Z,20.48
2019-02-26T14:53:31.221Z,18.85
2019-02-26T14:56:00.386Z,17.78
2019-02-26T14:58:29.637Z,17.80
2019-02-26T15:01:00.401Z,18.50
2019-02-26T15:03:29.885Z,17.97
2019-02-26T15:05:59.187Z,17.45
2019-02-26T15:08:28.551Z,18.15
2019-02-26T15:10:57.858Z,18.37
2019-02-26T15:13:27.494Z,19.59
2019-02-26T15:15:56.675Z,19.94
2019-02-26T15:18:25.940Z,19.63
2019-02-26T15:20:55.150Z,19.14
2019-02-26T15:23:24.609Z,19.97
2019-02-26T15:25:53.812Z,24.73
2019-02-26T15:28:22.979Z,25.88
2019-02-26T15:30:52.178Z,25.33
2019-02-26T15:33:21.498Z,27.12
2019-02-26T15:35:50.652Z,25.78
2019-02-26T15:38:19.952Z,26.90
2019-02-26T15:40:51.161Z,27.28
2019-02-26T15:43:20.036Z,27.72
2019-02-26T15:45:51.963Z,29.04
2019-02-26T15:48:20.242Z,28.36
2019-02-26T15:50:49.417Z,28.03
2019-02-26T15:53:18.641Z,28.02
2019-02-26T15:55:47.831Z,27.88
2019-02-26T15:58:17.038Z,27.40
2019-02-26T16:00:46.309Z,26.60
2019-02-26T16:03:15.660Z,27.25
2019-02-26T16:05:44.906Z,26.66
2019-02-26T16:08:14.205Z,27.68
2019-02-26T16:10:43.666Z,28.19
2019-02-26T16:13:12.930Z,29.32
2019-02-26T16:15:42.262Z,28.95
2019-02-26T16:18:11.476Z,29.79
2019-02-26T16:20:40.853Z,29.68
2019-02-26T16:23:10.062Z,30.29
2019-02-26T16:25:39.280Z,30.77
2019-02-26T16:28:08.573Z,30.77
2019-02-26T16:30:38.119Z,30.99
2019-02-26T16:33:07.316Z,31.18
2019-02-26T16:35:36.467Z,31.91
2019-02-26T16:38:05.853Z,31.92
2019-02-26T16:40:35.003Z,31.85
2019-02-26T16:43:04.480Z,31.63
2019-02-26T16:45:35.146Z,32.39
2019-02-26T16:48:04.522Z,32.09
2019-02-26T16:50:33.962Z,32.44
2019-02-26T16:53:03.315Z,32.62
2019-02-26T16:55:32.713Z,33.18
2019-02-26T16:58:03.256Z,33.81
2019-02-26T17:00:32.712Z,33.35
2019-02-26T17:03:02.721Z,33.41
2019-02-26T17:05:32.049Z,35.82
2019-02-26T17:08:01.747Z,35.53
2019-02-26T17:10:31.249Z,35.07
2019-02-26T17:13:02.332Z,35.27
2019-02-26T17:15:31.365Z,35.86
2019-02-26T17:18:00.643Z,36.83
2019-02-26T17:20:29.962Z,39.15
2019-02-26T17:22:59.299Z,39.10
2019-02-26T17:25:29.018Z,39.67
2019-02-26T17:27:58.681Z,40.26
2019-02-26T17:30:27.960Z,40.58
2019-02-26T17:32:57.130Z,41.35
2019-02-26T17:35:28.586Z,41.77
2019-02-26T17:37:57.301Z,42.45
2019-02-26T17:40:26.564Z,42.41
2019-02-26T17:42:55.756Z,42.24
2019-02-26T17:45:25.057Z,42.79
2019-02-26T17:47:56.810Z,43.17
2019-02-26T17:50:28.374Z,43.77
2019-02-26T17:52:57.833Z,44.36
2019-02-26T17:55:27.276Z,45.30
2019-02-26T17:57:56.483Z,45.23
2019-02-26T18:00:26.410Z,45.66
2019-02-26T18:02:55.570Z,46.50
2019-02-26T18:05:24.832Z,46.77
2019-02-26T18:07:53.990Z,46.98
2019-02-26T18:10:23.304Z,47.23
2019-02-26T18:12:53.909Z,47.48
2019-02-26T18:15:23.439Z,47.23
2019-02-26T18:17:52.677Z,47.27
2019-02-26T18:20:21.916Z,47.73
2019-02-26T18:22:51.085Z,48.68
2019-02-26T18:25:20.310Z,49.09
2019-02-26T18:27:49.808Z,49.14
2019-02-26T18:30:20.884Z,49.29
2019-02-26T18:32:50.726Z,49.75
2019-02-26T18:35:21.171Z,49.83
2019-02-26T18:37:50.504Z,50.00
2019-02-26T18:40:20.022Z,50.44
2019-02-26T18:42:49.206Z,51.24
2019-02-26T18:45:20.317Z,51.53
2019-02-26T18:47:49.548Z,52.09
2019-02-26T18:50:19.295Z,52.13
2019-02-26T18:52:48.575Z,52.45
2019-02-26T18:55:18.683Z,52.81
2019-02-26T18:57:48.104Z,52.91
2019-02-26T19:00:19.700Z,52.95
2019-02-26T19:02:49.073Z,53.00
2019-02-26T19:05:20.812Z,53.01
2019-02-26T19:07:49.580Z,53.45
2019-02-26T19:10:20.865Z,53.82
2019-02-26T19:12:50.301Z,54.13
2019-02-26T19:15:19.969Z,54.56
2019-02-26T19:17:50.669Z,54.59
2019-02-26T19:20:22.412Z,55.18
2019-02-26T19:22:52.198Z,55.21
2019-02-26T19:25:21.466Z,55.37
2019-02-26T19:27:53.189Z,55.64
2019-02-26T19:30:23.575Z,55.80
2019-02-26T19:32:52.893Z,56.09
2019-02-26T19:35:22.161Z,56.06
2019-02-26T19:37:55.123Z,56.23
2019-02-26T19:40:26.937Z,56.67
2019-02-26T19:42:56.410Z,56.91
2019-02-26T19:45:25.906Z,57.34
2019-02-26T19:47:56.076Z,57.57
2019-02-26T19:50:26.053Z,58.01
2019-02-26T19:52:57.160Z,58.68
2019-02-26T19:55:28.939Z,58.98
2019-02-26T19:57:58.209Z,59.52
2019-02-26T20:00:27.505Z,59.60
2019-02-26T20:02:56.763Z,59.56
2019-02-26T20:05:26.056Z,59.47
2019-02-26T20:07:56.798Z,59.80
2019-02-26T20:10:26.050Z,60.56
2019-02-26T20:12:55.278Z,60.39
2019-02-26T20:15:24.586Z,60.19
2019-02-26T20:17:55.463Z,60.27
2019-02-26T20:20:24.736Z,60.17
2019-02-26T20:22:54.019Z,60.30
2019-02-26T20:25:23.750Z,60.02
2019-02-26T20:27:54.783Z,60.08
2019-02-26T20:30:24.407Z,60.35
2019-02-26T20:32:55.953Z,61.29
2019-02-26T20:35:25.324Z,61.35
2019-02-26T20:37:58.634Z,61.85
2019-02-26T20:40:28.444Z,62.36
2019-02-26T20:43:01.284Z,61.58
2019-02-26T20:45:28.880Z,62.18
2019-02-26T20:48:03.858Z,63.40
2019-02-26T20:50:31.856Z,63.29
2019-02-26T20:53:05.590Z,63.55
2019-02-26T20:55:35.303Z,64.13
2019-02-26T20:58:05.363Z,64.07
2019-02-26T21:00:34.801Z,63.52
2019-02-26T21:03:04.258Z,64.56
2019-02-26T21:05:34.658Z,63.60
2019-02-26T21:08:05.224Z,63.70
2019-02-26T21:10:34.543Z,63.87
2019-02-26T21:13:04.052Z,64.17
2019-02-26T21:15:33.088Z,64.14
2019-02-26T21:18:02.957Z,63.99
2019-02-26T21:20:32.187Z,64.20
2019-02-26T21:23:02.554Z,63.92
2019-02-26T21:25:31.831Z,64.04
2019-02-26T21:28:05.376Z,64.05
2019-02-26T21:30:34.842Z,64.26
2019-02-26T21:33:04.099Z,64.14
2019-02-26T21:35:33.300Z,64.09
2019-02-26T21:38:05.738Z,64.71
2019-02-26T21:40:37.359Z,64.21
2019-02-26T21:43:07.651Z,64.82
2019-02-26T21:45:37.208Z,65.37
2019-02-26T21:48:06.530Z,65.79
2019-02-26T21:50:35.787Z,65.97
2019-02-26T21:53:04.967Z,65.46
2019-02-26T21:55:43.884Z,65.21
2019-02-26T21:58:05.181Z,65.29
2019-02-26T22:00:36.730Z,66.36
2019-02-26T22:03:07.899Z,65.84
2019-02-26T22:05:37.916Z,65.51
2019-02-26T22:08:07.536Z,65.13
2019-02-26T22:10:36.830Z,64.93
2019-02-26T22:13:06.036Z,65.27
2019-02-26T22:15:36.257Z,65.25
2019-02-26T22:18:06.019Z,64.78
2019-02-26T22:20:36.488Z,65.50
2019-02-26T22:23:07.282Z,65.00
2019-02-26T22:25:37.482Z,65.17
2019-02-26T22:28:08.727Z,64.52
2019-02-26T22:30:37.617Z,65.05
2019-02-26T22:33:07.985Z,65.83
2019-02-26T22:35:37.714Z,65.92
2019-02-26T22:38:06.943Z,66.33
2019-02-26T22:40:36.175Z,67.10
2019-02-26T22:43:05.455Z,67.00
2019-02-26T22:45:34.706Z,66.93
2019-02-26T22:48:05.580Z,67.14
2019-02-26T22:50:34.732Z,67.82
2019-02-26T22:53:04.591Z,67.42
2019-02-26T22:55:33.856Z,67.47
2019-02-26T22:58:03.392Z,67.25
2019-02-26T23:01:02.734Z,68.27
2019-02-26T23:03:32.201Z,67.76
2019-02-26T23:06:01.360Z,67.42
2019-02-26T23:08:30.535Z,66.73
2019-02-26T23:10:59.825Z,67.00
2019-02-26T23:13:31.818Z,67.00
2019-02-26T23:16:00.008Z,66.89
2019-02-26T23:18:30.952Z,67.72
2019-02-26T23:21:00.127Z,67.60
2019-02-26T23:23:29.352Z,68.03
2019-02-26T23:25:58.522Z,68.37
2019-02-26T23:28:27.736Z,69.12
2019-02-26T23:30:59.707Z,69.20
2019-02-26T23:33:28.514Z,68.98
2019-02-26T23:35:57.966Z,68.95
2019-02-26T23:38:27.155Z,68.88
2019-02-26T23:40:58.158Z,69.47
2019-02-26T23:43:27.476Z,69.16
2019-02-26T23:45:57.539Z,69.19
2019-02-26T23:48:26.844Z,69.75
2019-02-26T23:50:56.032Z,68.80
2019-02-26T23:53:25.231Z,69.27
2019-02-26T23:55:54.428Z,68.75
2019-02-26T23:58:23.567Z,68.87
